Time;durP1;ratioP1;P1;durP2;ratioP2;P2;SDS_P1;SDS_P2;PMS_P1;PMS_P2;Temp;Humidity;BMP_temperature;BMP_pressure;BME280_temperature;BME280_humidity;BME280_pressure;Samples;Min_cycle;Max_cycle;Signal;HPM_P1;HPM_P2
2021/12/21 00:01:14;;;;;;;8.68;1.80;;;29.40;99.90;;;;;;5031370;28;20223;-83
2021/12/21 00:03:45;;;;;;;2.90;1.13;;;29.40;99.90;;;;;;5029560;28;20213;-81
2021/12/21 00:06:16;;;;;;;3.75;1.08;;;29.30;99.90;;;;;;5028951;28;20822;-81
2021/12/21 00:08:47;;;;;;;4.65;1.10;;;29.40;99.90;;;;;;5027671;28;20224;-80
2021/12/21 00:11:18;;;;;;;4.45;1.30;;;29.40;99.90;;;;;;5022341;28;20193;-79
2021/12/21 00:14:11;;;;;;;4.13;1.00;;;29.50;99.90;;;;;;5030318;28;20691;-82
2021/12/21 00:17:04;;;;;;;4.70;1.05;;;29.50;99.90;;;;;;5030490;28;20249;-82
2021/12/21 00:19:51;;;;;;;4.93;1.10;;;29.60;99.90;;;;;;5030028;28;20635;-83
2021/12/21 00:25:05;;;;;;;5.60;1.40;;;29.80;99.90;;;;;;5028278;28;20665;-83
2021/12/21 00:27:38;;;;;;;4.70;1.20;;;29.90;99.90;;;;;;5030011;28;20221;-80
2021/12/21 00:30:09;;;;;;;3.97;1.08;;;29.90;99.90;;;;;;5015526;28;20229;-80
2021/12/21 00:32:42;;;;;;;2.47;1.00;;;29.90;99.90;;;;;;5031851;28;20662;-83
2021/12/21 00:35:13;;;;;;;5.72;1.30;;;30.00;99.90;;;;;;5029760;28;20229;-82
2021/12/21 00:37:45;;;;;;;5.88;1.10;;;30.00;99.90;;;;;;5031064;28;20232;-81
2021/12/21 00:40:16;;;;;;;8.77;1.23;;;30.00;99.90;;;;;;5033004;28;20234;-80
2021/12/21 00:42:47;;;;;;;4.65;1.10;;;30.10;99.90;;;;;;5028740;28;20304;-81
2021/12/21 00:45:18;;;;;;;22.10;11.35;;;30.20;99.90;;;;;;5030042;28;20221;-81
2021/12/21 00:47:50;;;;;;;5.90;1.63;;;30.20;99.90;;;;;;5032623;28;20254;-81
2021/12/21 00:50:22;;;;;;;4.47;0.90;;;30.30;99.90;;;;;;5028099;28;20198;-80
2021/12/21 00:52:55;;;;;;;3.60;1.20;;;30.30;99.90;;;;;;5022478;28;20221;-80
2021/12/21 00:55:26;;;;;;;6.00;1.20;;;30.30;99.90;;;;;;5030668;28;20225;-82
2021/12/21 00:57:56;;;;;;;3.58;1.13;;;30.40;99.90;;;;;;5032395;28;20213;-81
2021/12/21 01:00:27;;;;;;;3.47;1.10;;;30.40;99.90;;;;;;5030789;28;20248;-79
2021/12/21 01:03:06;;;;;;;1.98;0.90;;;30.50;99.90;;;;;;5019128;28;20634;-80
2021/12/21 01:05:43;;;;;;;2.58;0.98;;;30.50;99.90;;;;;;5030666;28;20655;-79
2021/12/21 01:08:20;;;;;;;4.28;1.00;;;30.60;99.90;;;;;;5033335;28;20212;-80
2021/12/21 01:11:04;;;;;;;4.35;1.20;;;30.70;99.70;;;;;;5029505;28;20224;-79
2021/12/21 01:13:51;;;;;;;3.30;1.05;;;30.80;99.30;;;;;;5027151;28;20217;-79
2021/12/21 01:16:36;;;;;;;4.10;1.00;;;30.90;98.50;;;;;;5028705;28;20642;-79
2021/12/21 01:19:17;;;;;;;3.75;0.90;;;30.90;98.20;;;;;;5026269;28;20310;-81
2021/12/21 01:22:00;;;;;;;6.22;1.13;;;30.90;98.30;;;;;;5026711;28;20217;-81
2021/12/21 01:24:52;;;;;;;4.40;1.08;;;30.90;97.90;;;;;;5030050;28;20271;-79
2021/12/21 01:27:31;;;;;;;7.50;1.10;;;30.80;97.80;;;;;;5029036;28;20221;-80
2021/12/21 01:30:10;;;;;;;4.25;1.20;;;30.80;97.80;;;;;;5025123;28;20644;-79
2021/12/21 01:32:57;;;;;;;3.65;0.82;;;30.80;98.80;;;;;;5029515;28;20266;-79
2021/12/21 01:35:33;;;;;;;3.45;1.20;;;30.90;99.10;;;;;;5032409;28;20226;-80
2021/12/21 01:38:12;;;;;;;4.18;1.10;;;31.00;98.40;;;;;;5033020;28;20221;-79
2021/12/21 01:40:50;;;;;;;3.13;0.98;;;31.00;98.10;;;;;;5035383;28;20236;-79
2021/12/21 01:43:28;;;;;;;4.03;1.20;;;31.10;98.00;;;;;;5035004;28;20207;-80
2021/12/21 01:51:36;;;;;;;4.95;1.45;;;31.20;98.10;;;;;;5031717;28;20266;-82
2021/12/21 01:54:08;;;;;;;4.72;1.15;;;31.20;97.40;;;;;;5028586;28;20249;-84
2021/12/21 01:56:40;;;;;;;7.18;1.05;;;31.20;98.10;;;;;;5028482;28;20601;-82
2021/12/21 01:59:11;;;;;;;4.85;1.13;;;31.20;97.80;;;;;;5036933;28;20225;-82
2021/12/21 02:01:42;;;;;;;2.05;0.98;;;31.20;96.90;;;;;;5030580;28;20707;-82
2021/12/21 02:04:15;;;;;;;4.32;1.15;;;31.30;97.10;;;;;;5029411;28;20631;-82
2021/12/21 02:06:49;;;;;;;3.88;0.90;;;31.30;97.30;;;;;;5029484;28;20204;-83
2021/12/21 02:09:21;;;;;;;4.35;1.00;;;31.30;97.40;;;;;;5028865;28;20224;-83
2021/12/21 02:11:52;;;;;;;4.90;1.17;;;31.40;97.10;;;;;;5029184;28;20247;-83
2021/12/21 02:14:23;;;;;;;3.50;1.05;;;31.40;97.00;;;;;;5031902;28;20204;-82
2021/12/21 02:17:07;;;;;;;7.03;1.20;;;31.50;96.90;;;;;;5026381;28;20568;-80
2021/12/21 02:19:59;;;;;;;4.70;1.27;;;31.40;96.50;;;;;;5030046;28;20225;-80
2021/12/21 02:22:32;;;;;;;4.38;1.15;;;31.50;96.50;;;;;;5029599;28;20247;-80
2021/12/21 02:25:19;;;;;;;3.08;1.15;;;31.50;96.50;;;;;;5027214;28;20225;-80
2021/12/21 02:27:58;;;;;;;3.90;1.20;;;31.40;97.00;;;;;;5026610;28;20228;-80
2021/12/21 02:30:29;;;;;;;4.72;1.48;;;31.50;97.00;;;;;;5026277;28;20247;-81
2021/12/21 02:32:59;;;;;;;3.88;1.60;;;31.60;96.80;;;;;;5027016;28;20221;-84
2021/12/21 02:35:32;;;;;;;3.72;1.30;;;31.60;96.40;;;;;;5031443;28;20197;-82
2021/12/21 02:38:03;;;;;;;2.95;1.10;;;31.60;96.60;;;;;;5026414;28;20221;-82
2021/12/21 02:40:34;;;;;;;5.85;1.20;;;31.70;96.80;;;;;;5030019;28;20229;-82
2021/12/21 02:43:05;;;;;;;3.13;1.10;;;31.70;96.20;;;;;;5028096;28;20224;-81
2021/12/21 02:45:36;;;;;;;4.47;1.23;;;31.50;95.80;;;;;;5028799;28;20239;-82
2021/12/21 02:48:07;;;;;;;2.80;1.10;;;31.50;96.10;;;;;;5031154;28;20193;-81
2021/12/21 02:50:41;;;;;;;2.90;1.10;;;31.50;96.20;;;;;;5028478;28;20197;-80
2021/12/21 02:53:12;;;;;;;3.65;1.02;;;31.60;96.20;;;;;;5027437;28;20217;-80
2021/12/21 02:55:42;;;;;;;5.03;1.15;;;31.70;96.00;;;;;;5027710;28;20279;-81
2021/12/21 02:58:13;;;;;;;4.65;1.00;;;31.80;96.30;;;;;;5027304;28;20232;-82
2021/12/21 03:00:44;;;;;;;3.83;1.30;;;31.90;96.30;;;;;;5026829;28;20225;-79
2021/12/21 03:03:15;;;;;;;6.00;1.20;;;32.00;95.70;;;;;;5028687;28;20276;-82
2021/12/21 03:05:51;;;;;;;4.03;1.25;;;32.00;95.60;;;;;;5028366;28;20225;-82
2021/12/21 03:08:24;;;;;;;2.85;1.10;;;32.00;95.80;;;;;;5027782;28;20196;-80
2021/12/21 03:11:09;;;;;;;2.67;1.30;;;32.10;95.60;;;;;;5028062;28;20724;-80
2021/12/21 03:14:03;;;;;;;3.83;1.30;;;32.00;95.90;;;;;;5029497;28;20279;-80
2021/12/21 03:16:36;;;;;;;3.85;1.00;;;32.00;96.50;;;;;;5029632;28;20643;-80
2021/12/21 03:19:08;;;;;;;5.95;1.23;;;32.10;96.90;;;;;;5025192;28;20350;-80
2021/12/21 03:21:41;;;;;;;5.50;1.30;;;32.10;96.70;;;;;;5024716;28;20212;-78
2021/12/21 03:24:12;;;;;;;3.72;0.95;;;32.20;96.50;;;;;;5030479;28;20201;-80
2021/12/21 03:26:43;;;;;;;3.92;1.10;;;32.10;96.30;;;;;;5025607;28;20213;-80
2021/12/21 03:29:13;;;;;;;6.18;1.23;;;32.10;96.10;;;;;;5025830;28;20642;-81
2021/12/21 03:31:44;;;;;;;2.28;1.00;;;32.10;95.40;;;;;;5028165;28;20669;-83
2021/12/21 03:34:15;;;;;;;2.80;1.02;;;32.10;95.70;;;;;;5029267;28;20189;-79
2021/12/21 03:36:47;;;;;;;3.78;1.02;;;32.10;95.70;;;;;;5027863;28;20217;-79
2021/12/21 03:39:19;;;;;;;4.53;1.13;;;32.10;95.60;;;;;;5030500;28;20239;-79
2021/12/21 03:41:55;;;;;;;2.55;0.90;;;31.90;96.20;;;;;;5028283;28;20200;-81
2021/12/21 03:44:27;;;;;;;3.13;1.00;;;31.90;96.60;;;;;;5024410;28;20296;-81
2021/12/21 03:46:58;;;;;;;3.38;1.10;;;32.00;97.50;;;;;;5022146;28;20226;-81
2021/12/21 03:52:32;;;;;;;3.30;1.00;;;32.10;97.30;;;;;;5026182;28;20287;-81
2021/12/21 03:55:04;;;;;;;4.00;1.10;;;32.20;96.80;;;;;;5027233;28;20221;-80
2021/12/21 03:57:34;;;;;;;3.20;1.23;;;32.10;97.00;;;;;;5027364;28;20224;-81
2021/12/21 04:00:06;;;;;;;5.82;1.30;;;32.10;96.30;;;;;;5030597;28;20263;-81
2021/12/21 04:02:36;;;;;;;4.93;1.20;;;32.20;95.60;;;;;;5024667;28;20221;-81
2021/12/21 04:05:11;;;;;;;3.67;1.17;;;32.10;95.30;;;;;;5017665;28;20725;-81
2021/12/21 04:07:45;;;;;;;3.53;1.02;;;31.90;95.20;;;;;;5030012;28;20825;-80
2021/12/21 04:10:16;;;;;;;3.30;0.95;;;31.90;95.80;;;;;;5028378;28;20204;-80
2021/12/21 04:12:46;;;;;;;4.25;1.13;;;31.90;96.20;;;;;;5026987;28;20688;-81
2021/12/21 04:15:18;;;;;;;2.55;0.90;;;31.90;95.40;;;;;;5036715;28;20248;-80
2021/12/21 04:17:49;;;;;;;5.47;1.20;;;31.90;95.90;;;;;;5029937;28;20197;-81
2021/12/21 04:20:20;;;;;;;3.28;1.27;;;31.90;96.00;;;;;;5029530;28;20225;-79
2021/12/21 04:22:52;;;;;;;3.40;1.20;;;31.90;96.30;;;;;;5019512;28;20232;-79
2021/12/21 04:25:23;;;;;;;5.78;1.25;;;31.90;96.50;;;;;;5016174;28;20194;-79
2021/12/21 04:27:54;;;;;;;2.95;1.10;;;31.90;95.70;;;;;;5029268;28;20197;-83
2021/12/21 04:30:25;;;;;;;5.03;1.23;;;32.00;95.90;;;;;;5026609;28;20246;-84
2021/12/21 04:32:55;;;;;;;3.28;0.80;;;31.90;95.30;;;;;;5032482;28;20220;-79
2021/12/21 04:35:26;;;;;;;5.60;1.15;;;32.00;95.60;;;;;;5033796;28;20324;-82
2021/12/21 04:38:12;;;;;;;2.40;0.98;;;32.10;95.80;;;;;;5032285;28;20202;-83
2021/12/21 04:40:47;;;;;;;4.43;0.98;;;32.30;95.40;;;;;;5031206;28;20762;-82
2021/12/21 04:43:18;;;;;;;3.13;0.80;;;32.40;94.80;;;;;;5024139;28;20242;-80
2021/12/21 04:45:49;;;;;;;5.00;1.20;;;32.20;94.90;;;;;;5030919;28;20805;-82
2021/12/21 04:48:20;;;;;;;4.07;1.05;;;32.30;94.80;;;;;;5027036;28;20259;-83
2021/12/21 04:50:51;;;;;;;3.33;0.95;;;32.40;94.70;;;;;;5033800;28;20185;-81
2021/12/21 04:53:24;;;;;;;3.45;1.10;;;32.50;93.70;;;;;;5019928;28;20218;-83
2021/12/21 04:55:55;;;;;;;3.42;1.17;;;32.50;93.90;;;;;;5029231;28;20247;-83
2021/12/21 04:58:26;;;;;;;3.53;1.08;;;32.70;95.10;;;;;;5029694;28;20190;-82
2021/12/21 05:00:57;;;;;;;2.08;1.10;;;32.70;95.10;;;;;;5029790;28;20221;-83
2021/12/21 05:03:27;;;;;;;5.75;1.30;;;32.90;94.70;;;;;;5030858;28;20217;-82
2021/12/21 05:05:59;;;;;;;6.57;1.13;;;33.10;95.40;;;;;;5034150;28;20276;-83
2021/12/21 05:08:36;;;;;;;5.05;1.20;;;33.30;94.90;;;;;;5029560;28;20220;-83
2021/12/21 05:11:08;;;;;;;4.30;1.30;;;33.50;94.30;;;;;;5022501;28;20243;-82
2021/12/21 05:13:40;;;;;;;4.85;1.50;;;33.60;94.20;;;;;;5028840;28;20268;-82
2021/12/21 05:16:10;;;;;;;4.40;1.25;;;33.60;95.70;;;;;;5032178;28;20197;-82
2021/12/21 05:18:41;;;;;;;4.72;1.40;;;33.60;95.60;;;;;;5028306;28;20213;-80
2021/12/21 05:21:12;;;;;;;4.30;1.42;;;33.70;95.30;;;;;;5030335;28;20221;-79
2021/12/21 05:23:44;;;;;;;4.82;1.17;;;33.70;95.30;;;;;;5030149;28;20557;-82
2021/12/21 05:26:15;;;;;;;3.50;1.40;;;33.70;95.50;;;;;;5029836;28;20221;-80
2021/12/21 05:28:45;;;;;;;6.40;1.10;;;33.50;95.70;;;;;;5030383;28;20255;-80
2021/12/21 05:31:16;;;;;;;6.70;1.30;;;33.70;95.30;;;;;;5028779;28;20220;-80
2021/12/21 05:33:50;;;;;;;6.28;1.45;;;33.90;94.80;;;;;;5031904;28;20216;-80
2021/12/21 05:36:22;;;;;;;6.50;1.30;;;34.10;94.60;;;;;;5029629;28;20304;-80
2021/12/21 05:39:00;;;;;;;4.40;1.30;;;34.30;94.60;;;;;;5027680;28;20660;-80
2021/12/21 05:41:45;;;;;;;5.50;1.38;;;34.50;94.20;;;;;;5023657;28;20280;-79
2021/12/21 05:44:17;;;;;;;5.28;1.50;;;34.70;93.20;;;;;;5031447;28;20289;-80
2021/12/21 05:46:55;;;;;;;5.10;1.52;;;35.00;92.90;;;;;;5041187;28;20200;-81
2021/12/21 05:49:26;;;;;;;5.18;1.45;;;35.30;91.30;;;;;;5044895;28;20197;-82
2021/12/21 05:51:56;;;;;;;5.53;1.50;;;35.60;91.10;;;;;;5031883;28;20201;-80
2021/12/21 05:54:29;;;;;;;3.97;1.60;;;35.70;89.20;;;;;;5032021;28;20193;-80
2021/12/21 05:57:00;;;;;;;5.45;1.27;;;35.90;90.00;;;;;;5031904;28;20197;-80
2021/12/21 05:59:30;;;;;;;5.65;1.70;;;36.10;89.40;;;;;;5031476;28;20259;-79
2021/12/21 06:02:01;;;;;;;4.13;1.45;;;36.30;86.90;;;;;;5029285;28;20225;-79
2021/12/21 06:04:32;;;;;;;8.18;1.42;;;36.00;87.60;;;;;;5032246;28;20268;-79
2021/12/21 06:07:03;;;;;;;4.53;1.27;;;35.90;87.00;;;;;;5029291;28;20198;-80
2021/12/21 06:09:36;;;;;;;7.82;1.45;;;36.00;85.80;;;;;;5023899;28;20213;-80
2021/12/21 06:12:12;;;;;;;6.45;1.60;;;36.00;83.20;;;;;;5028206;28;20204;-80
2021/12/21 06:15:11;;;;;;;4.70;1.25;;;36.00;84.20;;;;;;5028988;28;20308;-78
2021/12/21 06:23:53;;;;;;;5.55;1.38;;;35.90;83.00;;;;;;5031574;28;20212;-78
2021/12/21 06:26:26;;;;;;;5.38;1.55;;;35.70;84.50;;;;;;5025087;28;20239;-82
2021/12/21 06:28:57;;;;;;;7.38;1.40;;;35.80;83.60;;;;;;5032640;28;20205;-81
2021/12/21 06:31:28;;;;;;;3.65;1.27;;;35.90;83.40;;;;;;5038009;28;20741;-81
2021/12/21 06:33:59;;;;;;;6.97;1.60;;;36.00;81.70;;;;;;5029112;28;20688;-79
2021/12/21 06:36:31;;;;;;;7.20;1.40;;;36.10;82.00;;;;;;5022636;28;20616;-79
2021/12/21 06:39:02;;;;;;;5.28;1.50;;;36.30;80.90;;;;;;5028013;28;20909;-78
2021/12/21 06:41:37;;;;;;;4.40;1.23;;;36.50;80.40;;;;;;5028084;28;20232;-78
2021/12/21 06:44:09;;;;;;;7.35;1.40;;;36.60;79.20;;;;;;5028268;28;20543;-78
2021/12/21 06:46:52;;;;;;;5.55;1.30;;;36.80;78.30;;;;;;5030049;28;20193;-78
2021/12/21 06:52:12;;;;;;;5.25;1.45;;;37.50;76.50;;;;;;5025744;28;20314;-78
2021/12/21 06:54:43;;;;;;;4.40;1.27;;;38.00;73.10;;;;;;5021104;28;20707;-78
2021/12/21 06:57:15;;;;;;;4.28;1.30;;;38.20;73.30;;;;;;5021835;28;20194;-78
2021/12/21 06:59:46;;;;;;;5.60;1.65;;;38.50;72.20;;;;;;5029180;28;20217;-78
2021/12/21 07:02:17;;;;;;;4.53;1.23;;;38.60;70.70;;;;;;5028684;28;20646;-80
2021/12/21 07:04:48;;;;;;;7.32;1.38;;;38.50;72.30;;;;;;5024472;28;20664;-77
2021/12/21 07:07:19;;;;;;;4.00;1.30;;;38.60;72.30;;;;;;5028783;28;20712;-77
2021/12/21 07:09:59;;;;;;;4.15;1.42;;;38.60;71.50;;;;;;5022388;28;20231;-78
2021/12/21 07:18:01;;;;;;;3.92;1.40;;;38.50;71.40;;;;;;5018857;28;20224;-77
2021/12/21 07:18:25;;;;;;;5.72;1.67;;;38.50;72.70;;;;;;5030671;28;20200;-77
2021/12/21 07:20:56;;;;;;;7.28;1.40;;;38.50;72.80;;;;;;5031046;28;20715;-77
2021/12/21 07:23:26;;;;;;;5.65;1.50;;;38.70;72.10;;;;;;5024999;28;20201;-77
2021/12/21 07:25:57;;;;;;;5.05;1.63;;;38.70;72.40;;;;;;5013862;28;20209;-77
2021/12/21 07:28:30;;;;;;;5.30;1.42;;;38.60;74.10;;;;;;5030614;28;20544;-77
2021/12/21 07:31:00;;;;;;;6.10;1.40;;;38.60;75.00;;;;;;5030310;28;20245;-77
2021/12/21 07:33:31;;;;;;;5.97;1.65;;;38.50;74.00;;;;;;5025458;28;20220;-77
2021/12/21 07:36:01;;;;;;;3.70;1.35;;;38.60;72.80;;;;;;5029008;28;20270;-79
2021/12/21 07:38:35;;;;;;;3.63;1.30;;;38.30;72.50;;;;;;5043552;28;20326;-79
2021/12/21 07:41:07;;;;;;;4.60;1.30;;;38.30;73.20;;;;;;5052137;28;20236;-79
2021/12/21 07:43:39;;;;;;;5.53;1.50;;;38.20;74.80;;;;;;5041978;28;20205;-79
2021/12/21 07:46:10;;;;;;;3.45;1.52;;;38.10;74.70;;;;;;5027729;28;20193;-78
2021/12/21 07:48:41;;;;;;;4.43;1.40;;;37.90;73.70;;;;;;5030029;28;20664;-79
2021/12/21 07:51:12;;;;;;;3.10;1.10;;;37.80;74.30;;;;;;5014004;28;20664;-79
2021/12/21 07:53:43;;;;;;;6.15;1.40;;;37.70;73.30;;;;;;5010144;28;20202;-79
2021/12/21 07:56:16;;;;;;;5.10;1.23;;;37.60;72.80;;;;;;5030322;28;20620;-79
2021/12/21 07:58:49;;;;;;;5.18;1.70;;;37.50;73.00;;;;;;5013548;28;20642;-79
2021/12/21 08:01:20;;;;;;;3.65;1.42;;;37.40;73.50;;;;;;5024643;28;20298;-78
2021/12/21 08:03:53;;;;;;;4.68;1.50;;;37.10;74.80;;;;;;5025129;28;20618;-80
2021/12/21 08:06:23;;;;;;;4.22;1.33;;;36.70;76.40;;;;;;5029628;28;20275;-79
2021/12/21 08:08:54;;;;;;;3.40;1.35;;;36.20;79.20;;;;;;5033229;28;20197;-79
2021/12/21 08:12:11;;;;;;;4.03;1.50;;;35.50;80.90;;;;;;5037895;28;20652;-79
2021/12/21 08:14:24;;;;;;;5.78;1.85;;;34.90;85.00;;;;;;5053534;28;20747;-80
2021/12/21 08:16:54;;;;;;;5.15;1.63;;;34.10;90.00;;;;;;5050258;28;20212;-79
2021/12/21 08:19:25;;;;;;;4.10;1.45;;;33.50;92.00;;;;;;5033318;28;20200;-81
2021/12/21 08:21:56;;;;;;;6.32;1.40;;;33.00;94.10;;;;;;5033401;28;20229;-80
2021/12/21 08:24:27;;;;;;;5.18;1.35;;;32.50;96.40;;;;;;5025243;28;20426;-81
2021/12/21 08:26:58;;;;;;;6.50;1.90;;;32.10;98.20;;;;;;5021121;28;20210;-79
2021/12/21 08:29:31;;;;;;;3.72;1.50;;;31.60;99.90;;;;;;5033175;28;20711;-80
2021/12/21 08:32:02;;;;;;;5.72;1.40;;;31.30;99.90;;;;;;5025660;28;20283;-79
2021/12/21 08:34:33;;;;;;;5.30;1.48;;;31.10;99.90;;;;;;5021502;28;20653;-79
2021/12/21 08:37:04;;;;;;;5.53;1.67;;;30.90;99.90;;;;;;5032899;28;20568;-80
2021/12/21 08:39:39;;;;;;;6.03;1.65;;;30.60;99.90;;;;;;5032817;28;20614;-80
2021/12/21 08:42:12;;;;;;;5.13;1.70;;;30.40;99.90;;;;;;5033093;28;20287;-80
2021/12/21 08:44:47;;;;;;;4.25;1.40;;;30.20;99.90;;;;;;5028958;28;20202;-79
2021/12/21 08:47:18;;;;;;;6.32;1.67;;;30.00;99.90;;;;;;5052255;28;20204;-80
2021/12/21 08:49:50;;;;;;;5.85;1.42;;;29.90;99.90;;;;;;5041637;28;20240;-79
2021/12/21 08:52:20;;;;;;;9.10;1.58;;;29.80;99.90;;;;;;5032645;28;20672;-79
2021/12/21 08:54:51;;;;;;;6.13;1.50;;;29.60;99.90;;;;;;5032907;28;20201;-79
2021/12/21 08:57:22;;;;;;;5.32;1.40;;;29.50;99.90;;;;;;5030154;28;20201;-78
2021/12/21 08:59:54;;;;;;;4.95;1.52;;;29.50;99.90;;;;;;5030095;28;20700;-79
2021/12/21 09:02:28;;;;;;;7.10;1.85;;;29.40;99.90;;;;;;5032983;28;20197;-80
2021/12/21 09:04:58;;;;;;;3.40;1.35;;;29.40;99.90;;;;;;5031139;28;20635;-79
2021/12/21 09:07:29;;;;;;;4.45;1.27;;;29.30;99.90;;;;;;5030282;28;20304;-79
2021/12/21 09:09:59;;;;;;;4.80;1.60;;;29.10;99.90;;;;;;5028448;28;20224;-79
2021/12/21 09:12:30;;;;;;;7.00;1.73;;;29.00;99.90;;;;;;5028748;28;20201;-79
2021/12/21 09:15:03;;;;;;;8.13;1.58;;;29.00;99.90;;;;;;5029704;28;20221;-80
2021/12/21 09:17:33;;;;;;;6.28;1.55;;;28.90;99.90;;;;;;5032115;28;20201;-78
2021/12/21 09:20:05;;;;;;;5.45;1.50;;;28.80;99.90;;;;;;5032000;28;20204;-79
2021/12/21 09:22:35;;;;;;;6.65;1.60;;;28.70;99.90;;;;;;5032273;28;20197;-79
2021/12/21 09:25:07;;;;;;;5.13;1.50;;;28.70;99.90;;;;;;5028342;28;20200;-79
2021/12/21 09:27:38;;;;;;;4.35;1.52;;;28.70;99.90;;;;;;5030286;28;20228;-80
2021/12/21 09:30:13;;;;;;;6.57;1.50;;;28.70;99.90;;;;;;5024782;28;20282;-88
2021/12/21 09:32:44;;;;;;;6.07;1.75;;;28.70;99.90;;;;;;5032271;28;20220;-88
2021/12/21 09:35:16;;;;;;;5.25;1.65;;;28.70;99.90;;;;;;5031948;28;20182;-88
2021/12/21 09:37:47;;;;;;;3.95;1.45;;;28.50;99.90;;;;;;5026521;28;20252;-87
2021/12/21 09:40:23;;;;;;;4.15;1.20;;;28.50;99.90;;;;;;5024796;28;20233;-87
2021/12/21 09:42:54;;;;;;;3.70;1.23;;;28.60;99.90;;;;;;5025357;28;20699;-87
2021/12/21 09:45:29;;;;;;;6.32;1.50;;;28.60;99.90;;;;;;5029062;28;20220;-88
2021/12/21 09:48:00;;;;;;;5.45;1.50;;;28.60;99.90;;;;;;5029794;28;20284;-89
2021/12/21 09:50:34;;;;;;;7.35;1.48;;;28.60;99.90;;;;;;5027772;28;20568;-88
2021/12/21 09:53:06;;;;;;;5.80;1.45;;;28.50;99.90;;;;;;5031460;28;20216;-86
2021/12/21 09:55:36;;;;;;;3.45;1.45;;;28.50;99.90;;;;;;5018111;28;20209;-88
2021/12/21 09:58:07;;;;;;;9.20;1.70;;;28.40;99.90;;;;;;5018358;28;20217;-89
2021/12/21 10:00:43;;;;;;;5.95;1.85;;;28.50;99.90;;;;;;5032857;28;20232;-88
2021/12/21 10:03:14;;;;;;;4.85;1.60;;;28.50;99.90;;;;;;5030644;28;20267;-88
2021/12/21 10:05:47;;;;;;;6.35;1.50;;;28.50;99.90;;;;;;5029697;28;20213;-89
2021/12/21 10:08:19;;;;;;;5.72;1.70;;;28.50;99.90;;;;;;5032876;28;20657;-88
2021/12/21 10:10:53;;;;;;;4.57;1.40;;;28.40;99.90;;;;;;5022353;28;20227;-86
2021/12/21 10:13:25;;;;;;;6.53;1.55;;;28.40;99.90;;;;;;5022985;28;20232;-86
2021/12/21 10:16:02;;;;;;;7.82;1.83;;;28.50;99.90;;;;;;5025380;28;20197;-87
2021/12/21 10:18:35;;;;;;;4.72;1.90;;;28.50;99.90;;;;;;5026345;28;20201;-86
2021/12/21 10:21:08;;;;;;;8.95;1.92;;;28.50;99.90;;;;;;5025440;28;20274;-86
2021/12/21 10:23:40;;;;;;;7.82;1.70;;;28.50;99.90;;;;;;5027306;28;20231;-85
2021/12/21 10:26:23;;;;;;;8.40;2.05;;;28.50;99.90;;;;;;5025387;28;20618;-85
2021/12/21 10:28:59;;;;;;;6.47;1.90;;;28.40;99.90;;;;;;5024987;28;20201;-86
2021/12/21 10:31:45;;;;;;;8.40;2.08;;;28.40;99.90;;;;;;5024870;28;20276;-84
2021/12/21 10:34:20;;;;;;;7.20;1.77;;;28.40;99.90;;;;;;5024209;28;20308;-85
2021/12/21 10:36:58;;;;;;;6.25;2.00;;;28.40;99.90;;;;;;5026010;28;20200;-86
2021/12/21 10:39:31;;;;;;;8.30;2.58;;;28.40;99.90;;;;;;5025250;28;20293;-86
2021/12/21 10:42:08;;;;;;;7.68;1.80;;;28.40;99.90;;;;;;5023827;28;20225;-81
2021/12/21 10:44:51;;;;;;;8.07;2.42;;;28.20;99.90;;;;;;5024383;28;20197;-82
2021/12/21 10:47:23;;;;;;;8.10;2.20;;;28.20;99.90;;;;;;5024598;28;20202;-86
2021/12/21 10:49:55;;;;;;;9.57;2.30;;;28.20;99.90;;;;;;5024599;28;20221;-86
2021/12/21 10:52:26;;;;;;;9.02;2.25;;;28.10;99.90;;;;;;5024946;28;20657;-83
2021/12/21 10:54:59;;;;;;;9.52;2.50;;;28.00;99.90;;;;;;5026276;28;20592;-84
2021/12/21 10:57:33;;;;;;;5.68;2.38;;;28.00;99.90;;;;;;5024255;28;20613;-85
2021/12/21 11:00:13;;;;;;;8.43;2.10;;;28.00;99.90;;;;;;5024698;28;20221;-86
2021/12/21 11:02:50;;;;;;;5.47;1.65;;;27.90;99.90;;;;;;5023322;28;20700;-85
2021/12/21 11:05:24;;;;;;;7.75;1.90;;;27.90;99.90;;;;;;5025446;28;20189;-85
2021/12/21 11:08:02;;;;;;;5.13;1.73;;;27.90;99.90;;;;;;5023539;28;20715;-85
2021/12/21 11:13:25;;;;;;;7.45;1.90;;;27.90;99.90;;;;;;5024563;28;20204;-85
2021/12/21 11:15:57;;;;;;;5.82;1.63;;;27.80;99.90;;;;;;5024549;28;20219;-85
2021/12/21 11:18:29;;;;;;;4.75;1.60;;;27.80;99.90;;;;;;5026005;28;20678;-85
2021/12/21 11:21:11;;;;;;;6.07;1.80;;;27.80;99.90;;;;;;5022521;28;20297;-86
2021/12/21 11:23:43;;;;;;;8.95;1.80;;;27.70;99.90;;;;;;5024268;28;20205;-83
2021/12/21 11:26:13;;;;;;;8.43;2.28;;;27.60;99.90;;;;;;5024671;28;20668;-85
2021/12/21 11:28:44;;;;;;;10.77;2.08;;;27.50;99.90;;;;;;5023879;28;20194;-85
2021/12/21 11:31:17;;;;;;;12.65;2.13;;;27.40;99.90;;;;;;5025313;28;20201;-84
2021/12/21 11:33:55;;;;;;;8.45;2.03;;;27.20;99.90;;;;;;5024767;28;20202;-85
2021/12/21 11:39:14;;;;;;;11.43;2.13;;;27.10;99.90;;;;;;5024604;28;20343;-85
2021/12/21 11:41:46;;;;;;;11.20;2.40;;;27.00;99.90;;;;;;5023324;28;20331;-84
2021/12/21 11:44:24;;;;;;;9.65;2.03;;;27.00;99.90;;;;;;5027380;28;20268;-85
2021/12/21 11:46:59;;;;;;;9.65;2.20;;;27.00;99.90;;;;;;5027927;28;20193;-86
2021/12/21 11:49:36;;;;;;;10.10;2.10;;;27.00;99.90;;;;;;5028720;28;20336;-86
2021/12/21 11:52:16;;;;;;;10.80;2.13;;;27.00;99.90;;;;;;5028661;28;20219;-83
2021/12/21 11:54:49;;;;;;;10.60;2.20;;;27.00;99.90;;;;;;5028443;28;20274;-86
2021/12/21 11:57:21;;;;;;;9.90;2.10;;;27.00;99.90;;;;;;5029209;28;20207;-86
2021/12/21 11:59:52;;;;;;;8.30;2.10;;;26.90;99.90;;;;;;5027063;28;20586;-85
2021/12/21 12:02:32;;;;;;;10.27;2.38;;;26.80;99.90;;;;;;5028729;28;20763;-84
2021/12/21 12:05:05;;;;;;;12.68;2.55;;;26.80;99.90;;;;;;5028568;28;20224;-82
2021/12/21 12:07:39;;;;;;;12.32;2.60;;;26.90;99.90;;;;;;5034055;28;20198;-83
2021/12/21 12:10:14;;;;;;;8.63;2.50;;;26.80;99.90;;;;;;5031636;28;20217;-82
2021/12/21 12:12:45;;;;;;;12.32;2.47;;;26.70;99.90;;;;;;5031578;28;20323;-83
2021/12/21 12:15:19;;;;;;;13.98;2.42;;;26.60;99.90;;;;;;5031559;28;20211;-83
2021/12/21 12:17:51;;;;;;;13.27;2.80;;;26.50;99.90;;;;;;5033564;28;20193;-82
2021/12/21 12:20:31;;;;;;;11.68;2.35;;;26.50;99.90;;;;;;5031592;28;20225;-81
2021/12/21 12:23:09;;;;;;;10.90;2.47;;;26.50;99.90;;;;;;5022086;28;20228;-83
2021/12/21 12:25:50;;;;;;;11.57;2.80;;;26.40;99.90;;;;;;5024320;28;20244;-81
2021/12/21 12:28:26;;;;;;;11.50;2.47;;;26.30;99.90;;;;;;5030321;28;20645;-83
2021/12/21 12:30:58;;;;;;;10.98;2.55;;;26.30;99.90;;;;;;5030754;28;20213;-83
2021/12/21 12:33:40;;;;;;;18.10;2.97;;;26.30;99.90;;;;;;5029216;28;20217;-82
2021/12/21 12:36:13;;;;;;;11.30;2.45;;;26.20;99.90;;;;;;5033307;28;20716;-83
2021/12/21 12:38:48;;;;;;;12.80;2.60;;;26.10;99.90;;;;;;5029094;28;20225;-83
2021/12/21 12:41:19;;;;;;;12.60;2.72;;;26.00;99.90;;;;;;5022722;28;20224;-83
2021/12/21 12:43:49;;;;;;;12.00;2.72;;;26.00;99.90;;;;;;5031658;28;20213;-83
2021/12/21 12:46:29;;;;;;;13.35;2.72;;;26.00;99.90;;;;;;5032645;28;20221;-84
2021/12/21 12:49:01;;;;;;;13.65;2.50;;;26.00;99.90;;;;;;5030929;28;20221;-83
2021/12/21 12:51:36;;;;;;;15.32;2.83;;;26.00;99.90;;;;;;5033307;28;20201;-83
2021/12/21 12:54:17;;;;;;;12.98;2.75;;;25.90;99.90;;;;;;5031277;28;20217;-83
2021/12/21 12:56:48;;;;;;;14.23;2.72;;;25.90;99.90;;;;;;5029646;28;20213;-83
2021/12/21 12:59:19;;;;;;;12.18;2.88;;;25.90;99.90;;;;;;5033254;28;20216;-83
2021/12/21 13:01:52;;;;;;;11.70;2.88;;;25.90;99.90;;;;;;5033267;28;20229;-84
2021/12/21 13:04:23;;;;;;;9.50;2.13;;;25.80;99.90;;;;;;5033096;28;20299;-83
2021/12/21 13:06:56;;;;;;;10.38;2.20;;;25.90;99.90;;;;;;5031709;28;20587;-84
2021/12/21 13:09:36;;;;;;;13.88;3.00;;;25.90;99.90;;;;;;5027078;28;20294;-86
2021/12/21 13:12:13;;;;;;;14.88;2.78;;;25.80;99.90;;;;;;5034531;28;20240;-84
2021/12/21 13:14:44;;;;;;;15.32;3.10;;;25.70;99.90;;;;;;5034681;28;20555;-87
2021/12/21 13:17:20;;;;;;;12.55;2.92;;;25.70;99.90;;;;;;5029146;28;20194;-85
2021/12/21 13:19:50;;;;;;;15.35;2.70;;;25.70;99.90;;;;;;5023344;28;20209;-85
2021/12/21 13:22:30;;;;;;;14.57;2.92;;;25.60;99.90;;;;;;5015650;28;20228;-89
2021/12/21 13:25:03;;;;;;;13.10;2.78;;;25.50;99.90;;;;;;5011125;28;21071;-88
2021/12/21 13:27:37;;;;;;;12.32;2.90;;;25.40;99.90;;;;;;5023767;28;20217;-87
2021/12/21 13:30:09;;;;;;;13.15;2.47;;;25.40;99.90;;;;;;5009235;28;20251;-88
2021/12/21 13:32:40;;;;;;;13.73;2.95;;;25.40;99.90;;;;;;5013278;28;20220;-89
2021/12/21 13:35:16;;;;;;;13.40;2.97;;;25.40;99.90;;;;;;5010477;28;20221;-87
2021/12/21 13:37:50;;;;;;;17.25;3.53;;;25.40;99.90;;;;;;5011089;28;20218;-88
2021/12/21 13:40:23;;;;;;;13.68;3.05;;;25.40;99.90;;;;;;5010122;28;20291;-87
2021/12/21 13:42:54;;;;;;;13.40;2.88;;;25.40;99.90;;;;;;5010136;28;20344;-88
2021/12/21 13:45:26;;;;;;;18.88;3.63;;;25.40;99.90;;;;;;5011518;28;20213;-88
2021/12/21 13:47:56;;;;;;;13.60;2.55;;;25.40;99.90;;;;;;5016064;28;20220;-87